sensor_id;sensor_type;location;lat;lon;timestamp;P1;durP1;ratioP1;P2;durP2;ratioP2
12603;SDS011;6367;52.508;13.284;2023-04-01T00:01:09;3.77;;;2.50;;
12603;SDS011;6367;52.508;13.284;2023-04-01T00:03:38;4.63;;;3.03;;
12603;SDS011;6367;52.508;13.284;2023-04-01T00:06:04;5.40;;;2.60;;
12603;SDS011;6367;52.508;13.284;2023-04-01T00:08:30;6.43;;;2.60;;
12603;SDS011;6367;52.508;13.284;2023-04-01T00:10:57;2.40;;;2.10;;
12603;SDS011;6367;52.508;13.284;2023-04-01T00:13:24;2.67;;;2.13;;
12603;SDS011;6367;52.508;13.284;2023-04-01T00:15:51;3.77;;;2.20;;
12603;SDS011;6367;52.508;13.284;2023-04-01T00:18:17;2.30;;;2.00;;
12603;SDS011;6367;52.508;13.284;2023-04-01T00:20:47;2.33;;;1.87;;
12603;SDS011;6367;52.508;13.284;2023-04-01T00:23:14;4.43;;;2.50;;
12603;SDS011;6367;52.508;13.284;2023-04-01T00:25:41;3.30;;;2.00;;
12603;SDS011;6367;52.508;13.284;2023-04-01T00:28:07;2.77;;;2.33;;
12603;SDS011;6367;52.508;13.284;2023-04-01T00:30:33;3.67;;;2.20;;
12603;SDS011;6367;52.508;13.284;2023-04-01T00:32:58;4.20;;;2.10;;
12603;SDS011;6367;52.508;13.284;2023-04-01T00:35:24;2.00;;;1.80;;
12603;SDS011;6367;52.508;13.284;2023-04-01T00:37:50;3.90;;;2.00;;
12603;SDS011;6367;52.508;13.284;2023-04-01T00:40:27;3.40;;;1.90;;
12603;SDS011;6367;52.508;13.284;2023-04-01T00:42:58;3.73;;;1.87;;
12603;SDS011;6367;52.508;13.284;2023-04-01T00:45:32;4.40;;;2.13;;
12603;SDS011;6367;52.508;13.284;2023-04-01T00:48:19;2.13;;;1.93;;
12603;SDS011;6367;52.508;13.284;2023-04-01T00:50:49;3.00;;;2.27;;
12603;SDS011;6367;52.508;13.284;2023-04-01T00:53:20;3.90;;;3.50;;
12603;SDS011;6367;52.508;13.284;2023-04-01T00:55:57;3.70;;;2.07;;
12603;SDS011;6367;52.508;13.284;2023-04-01T00:58:25;4.23;;;2.20;;
12603;SDS011;6367;52.508;13.284;2023-04-01T01:00:54;4.40;;;2.00;;
12603;SDS011;6367;52.508;13.284;2023-04-01T01:03:21;4.17;;;2.00;;
12603;SDS011;6367;52.508;13.284;2023-04-01T01:05:55;3.70;;;2.90;;
12603;SDS011;6367;52.508;13.284;2023-04-01T01:08:31;4.37;;;2.00;;
12603;SDS011;6367;52.508;13.284;2023-04-01T01:11:02;2.33;;;2.03;;
12603;SDS011;6367;52.508;13.284;2023-04-01T01:13:36;2.10;;;1.90;;
12603;SDS011;6367;52.508;13.284;2023-04-01T01:27:25;2.70;;;2.37;;
12603;SDS011;6367;52.508;13.284;2023-04-01T01:37:46;2.30;;;2.10;;
12603;SDS011;6367;52.508;13.284;2023-04-01T01:40:16;2.70;;;1.90;;
12603;SDS011;6367;52.508;13.284;2023-04-01T01:42:52;1.77;;;1.50;;
12603;SDS011;6367;52.508;13.284;2023-04-01T01:45:21;1.87;;;1.63;;
12603;SDS011;6367;52.508;13.284;2023-04-01T01:47:50;2.70;;;2.00;;
12603;SDS011;6367;52.508;13.284;2023-04-01T01:50:16;2.73;;;1.43;;
12603;SDS011;6367;52.508;13.284;2023-04-01T01:52:44;1.70;;;1.60;;
12603;SDS011;6367;52.508;13.284;2023-04-01T01:55:30;2.90;;;1.30;;
12603;SDS011;6367;52.508;13.284;2023-04-01T01:58:03;2.30;;;1.77;;
12603;SDS011;6367;52.508;13.284;2023-04-01T02:00:55;2.17;;;1.50;;
12603;SDS011;6367;52.508;13.284;2023-04-01T02:03:25;4.43;;;1.77;;
12603;SDS011;6367;52.508;13.284;2023-04-01T02:05:53;2.37;;;1.30;;
12603;SDS011;6367;52.508;13.284;2023-04-01T02:08:26;4.40;;;1.67;;
12603;SDS011;6367;52.508;13.284;2023-04-01T02:11:01;3.20;;;2.20;;
12603;SDS011;6367;52.508;13.284;2023-04-01T02:13:50;2.10;;;1.33;;
12603;SDS011;6367;52.508;13.284;2023-04-01T02:16:24;2.60;;;1.53;;
12603;SDS011;6367;52.508;13.284;2023-04-01T02:19:04;2.10;;;1.60;;
12603;SDS011;6367;52.508;13.284;2023-04-01T02:21:32;2.40;;;2.10;;
12603;SDS011;6367;52.508;13.284;2023-04-01T02:24:00;1.77;;;1.50;;
12603;SDS011;6367;52.508;13.284;2023-04-01T02:26:29;1.73;;;1.63;;
12603;SDS011;6367;52.508;13.284;2023-04-01T02:28:55;2.10;;;1.83;;
12603;SDS011;6367;52.508;13.284;2023-04-01T02:31:22;2.70;;;1.97;;
12603;SDS011;6367;52.508;13.284;2023-04-01T02:33:49;2.60;;;1.60;;
12603;SDS011;6367;52.508;13.284;2023-04-01T02:36:15;4.23;;;2.00;;
12603;SDS011;6367;52.508;13.284;2023-04-01T02:38:42;1.77;;;1.57;;
12603;SDS011;6367;52.508;13.284;2023-04-01T02:41:09;4.60;;;1.77;;
12603;SDS011;6367;52.508;13.284;2023-04-01T02:43:36;3.00;;;1.70;;
12603;SDS011;6367;52.508;13.284;2023-04-01T02:46:01;4.53;;;1.70;;
12603;SDS011;6367;52.508;13.284;2023-04-01T02:48:27;2.00;;;1.80;;
12603;SDS011;6367;52.508;13.284;2023-04-01T02:50:54;3.03;;;1.63;;
12603;SDS011;6367;52.508;13.284;2023-04-01T02:53:19;2.53;;;1.93;;
12603;SDS011;6367;52.508;13.284;2023-04-01T02:55:45;2.63;;;1.80;;
12603;SDS011;6367;52.508;13.284;2023-04-01T02:58:11;2.17;;;1.70;;
12603;SDS011;6367;52.508;13.284;2023-04-01T03:00:37;4.40;;;2.00;;
12603;SDS011;6367;52.508;13.284;2023-04-01T03:03:03;4.53;;;1.97;;
12603;SDS011;6367;52.508;13.284;2023-04-01T03:05:29;2.60;;;1.50;;
12603;SDS011;6367;52.508;13.284;2023-04-01T03:07:55;6.60;;;2.27;;
12603;SDS011;6367;52.508;13.284;2023-04-01T03:10:21;1.60;;;1.50;;
12603;SDS011;6367;52.508;13.284;2023-04-01T03:12:46;2.37;;;1.70;;
12603;SDS011;6367;52.508;13.284;2023-04-01T03:15:12;5.20;;;2.00;;
12603;SDS011;6367;52.508;13.284;2023-04-01T03:17:40;2.33;;;1.77;;
12603;SDS011;6367;52.508;13.284;2023-04-01T03:20:07;3.40;;;1.90;;
12603;SDS011;6367;52.508;13.284;2023-04-01T03:22:35;2.07;;;1.80;;
12603;SDS011;6367;52.508;13.284;2023-04-01T03:25:01;3.03;;;1.80;;
12603;SDS011;6367;52.508;13.284;2023-04-01T03:27:28;3.80;;;2.27;;
12603;SDS011;6367;52.508;13.284;2023-04-01T03:29:53;2.20;;;1.83;;
12603;SDS011;6367;52.508;13.284;2023-04-01T03:32:19;3.33;;;1.93;;
12603;SDS011;6367;52.508;13.284;2023-04-01T03:34:45;4.90;;;2.20;;
12603;SDS011;6367;52.508;13.284;2023-04-01T03:37:10;4.10;;;2.07;;
12603;SDS011;6367;52.508;13.284;2023-04-01T03:39:36;3.50;;;2.10;;
12603;SDS011;6367;52.508;13.284;2023-04-01T03:42:02;5.60;;;1.90;;
12603;SDS011;6367;52.508;13.284;2023-04-01T03:44:31;2.43;;;1.90;;
12603;SDS011;6367;52.508;13.284;2023-04-01T03:46:57;2.77;;;2.33;;
12603;SDS011;6367;52.508;13.284;2023-04-01T03:49:23;3.13;;;2.00;;
12603;SDS011;6367;52.508;13.284;2023-04-01T03:51:49;3.20;;;2.00;;
12603;SDS011;6367;52.508;13.284;2023-04-01T03:54:15;5.30;;;2.30;;
12603;SDS011;6367;52.508;13.284;2023-04-01T03:56:42;6.27;;;2.23;;
12603;SDS011;6367;52.508;13.284;2023-04-01T03:59:07;4.03;;;1.90;;
12603;SDS011;6367;52.508;13.284;2023-04-01T04:01:34;2.67;;;2.30;;
12603;SDS011;6367;52.508;13.284;2023-04-01T04:04:00;4.73;;;2.10;;
12603;SDS011;6367;52.508;13.284;2023-04-01T04:06:26;3.13;;;1.93;;
12603;SDS011;6367;52.508;13.284;2023-04-01T04:08:53;3.63;;;2.20;;
12603;SDS011;6367;52.508;13.284;2023-04-01T04:11:20;2.93;;;1.90;;
12603;SDS011;6367;52.508;13.284;2023-04-01T04:13:47;5.80;;;2.33;;
12603;SDS011;6367;52.508;13.284;2023-04-01T04:16:14;2.47;;;2.10;;
12603;SDS011;6367;52.508;13.284;2023-04-01T04:18:41;4.03;;;1.93;;
12603;SDS011;6367;52.508;13.284;2023-04-01T04:21:06;7.10;;;2.67;;
12603;SDS011;6367;52.508;13.284;2023-04-01T04:23:36;4.73;;;2.63;;
12603;SDS011;6367;52.508;13.284;2023-04-01T04:26:03;4.57;;;2.77;;
12603;SDS011;6367;52.508;13.284;2023-04-01T04:28:31;2.97;;;2.50;;
12603;SDS011;6367;52.508;13.284;2023-04-01T04:30:57;4.67;;;2.27;;
12603;SDS011;6367;52.508;13.284;2023-04-01T04:33:23;4.93;;;2.77;;
12603;SDS011;6367;52.508;13.284;2023-04-01T04:35:50;7.33;;;2.90;;
12603;SDS011;6367;52.508;13.284;2023-04-01T04:38:16;4.57;;;2.27;;
12603;SDS011;6367;52.508;13.284;2023-04-01T04:40:42;2.63;;;2.17;;
12603;SDS011;6367;52.508;13.284;2023-04-01T04:43:11;5.03;;;2.27;;
12603;SDS011;6367;52.508;13.284;2023-04-01T04:45:39;2.80;;;2.30;;
12603;SDS011;6367;52.508;13.284;2023-04-01T04:48:06;3.57;;;2.00;;
12603;SDS011;6367;52.508;13.284;2023-04-01T04:50:34;4.70;;;2.30;;
12603;SDS011;6367;52.508;13.284;2023-04-01T04:53:00;7.17;;;2.60;;
12603;SDS011;6367;52.508;13.284;2023-04-01T04:55:26;5.97;;;2.60;;
12603;SDS011;6367;52.508;13.284;2023-04-01T04:57:52;3.80;;;2.20;;
12603;SDS011;6367;52.508;13.284;2023-04-01T05:00:17;8.50;;;2.63;;
12603;SDS011;6367;52.508;13.284;2023-04-01T05:02:43;3.20;;;2.10;;
12603;SDS011;6367;52.508;13.284;2023-04-01T05:05:09;5.83;;;2.50;;
12603;SDS011;6367;52.508;13.284;2023-04-01T05:07:35;4.83;;;2.40;;
12603;SDS011;6367;52.508;13.284;2023-04-01T05:10:01;2.73;;;2.23;;
12603;SDS011;6367;52.508;13.284;2023-04-01T05:12:27;6.27;;;2.90;;
12603;SDS011;6367;52.508;13.284;2023-04-01T05:14:52;4.87;;;2.93;;
12603;SDS011;6367;52.508;13.284;2023-04-01T05:17:18;5.57;;;2.80;;
12603;SDS011;6367;52.508;13.284;2023-04-01T05:19:44;6.73;;;3.13;;
12603;SDS011;6367;52.508;13.284;2023-04-01T05:22:09;5.27;;;2.70;;
12603;SDS011;6367;52.508;13.284;2023-04-01T05:24:35;5.33;;;2.47;;
12603;SDS011;6367;52.508;13.284;2023-04-01T05:27:01;5.53;;;2.90;;
12603;SDS011;6367;52.508;13.284;2023-04-01T05:29:26;6.20;;;2.93;;
12603;SDS011;6367;52.508;13.284;2023-04-01T05:31:52;5.03;;;3.13;;
12603;SDS011;6367;52.508;13.284;2023-04-01T05:34:18;4.20;;;2.63;;
12603;SDS011;6367;52.508;13.284;2023-04-01T05:36:44;2.90;;;2.70;;
12603;SDS011;6367;52.508;13.284;2023-04-01T05:39:10;6.17;;;2.90;;
12603;SDS011;6367;52.508;13.284;2023-04-01T05:41:36;5.40;;;2.50;;
12603;SDS011;6367;52.508;13.284;2023-04-01T05:44:02;5.40;;;2.77;;
12603;SDS011;6367;52.508;13.284;2023-04-01T05:46:28;6.37;;;2.90;;
12603;SDS011;6367;52.508;13.284;2023-04-01T05:48:54;4.73;;;3.20;;
12603;SDS011;6367;52.508;13.284;2023-04-01T05:51:20;4.27;;;3.07;;
12603;SDS011;6367;52.508;13.284;2023-04-01T05:53:46;8.03;;;2.73;;
12603;SDS011;6367;52.508;13.284;2023-04-01T05:56:12;6.40;;;3.33;;
12603;SDS011;6367;52.508;13.284;2023-04-01T05:58:38;5.60;;;2.77;;
12603;SDS011;6367;52.508;13.284;2023-04-01T06:01:05;8.00;;;2.93;;
12603;SDS011;6367;52.508;13.284;2023-04-01T06:03:32;6.43;;;3.20;;
12603;SDS011;6367;52.508;13.284;2023-04-01T06:05:59;4.87;;;2.90;;
12603;SDS011;6367;52.508;13.284;2023-04-01T06:08:26;5.80;;;2.60;;
12603;SDS011;6367;52.508;13.284;2023-04-01T06:32:50;4.60;;;2.40;;
12603;SDS011;6367;52.508;13.284;2023-04-01T06:46:36;3.80;;;2.50;;
12603;SDS011;6367;52.508;13.284;2023-04-01T06:49:10;4.20;;;2.90;;
12603;SDS011;6367;52.508;13.284;2023-04-01T06:54:26;6.60;;;2.70;;
12603;SDS011;6367;52.508;13.284;2023-04-01T06:59:44;6.43;;;2.83;;
12603;SDS011;6367;52.508;13.284;2023-04-01T07:04:37;4.60;;;3.00;;
12603;SDS011;6367;52.508;13.284;2023-04-01T07:07:11;6.30;;;3.00;;
12603;SDS011;6367;52.508;13.284;2023-04-01T07:09:48;3.60;;;2.40;;
12603;SDS011;6367;52.508;13.284;2023-04-01T07:12:36;4.67;;;2.57;;
12603;SDS011;6367;52.508;13.284;2023-04-01T07:15:16;5.03;;;2.77;;
12603;SDS011;6367;52.508;13.284;2023-04-01T07:17:59;5.03;;;2.43;;
12603;SDS011;6367;52.508;13.284;2023-04-01T07:20:30;2.57;;;2.17;;
12603;SDS011;6367;52.508;13.284;2023-04-01T07:23:01;6.00;;;3.17;;
12603;SDS011;6367;52.508;13.284;2023-04-01T07:25:43;2.60;;;2.20;;
12603;SDS011;6367;52.508;13.284;2023-04-01T07:28:12;3.90;;;2.20;;
12603;SDS011;6367;52.508;13.284;2023-04-01T07:33:15;5.73;;;2.30;;
12603;SDS011;6367;52.508;13.284;2023-04-01T07:35:53;5.33;;;2.40;;
12603;SDS011;6367;52.508;13.284;2023-04-01T07:44:16;2.87;;;2.13;;
12603;SDS011;6367;52.508;13.284;2023-04-01T07:50:02;5.27;;;2.30;;
12603;SDS011;6367;52.508;13.284;2023-04-01T07:52:45;4.90;;;2.30;;
12603;SDS011;6367;52.508;13.284;2023-04-01T08:01:28;2.47;;;1.87;;
12603;SDS011;6367;52.508;13.284;2023-04-01T08:04:08;2.40;;;2.07;;
12603;SDS011;6367;52.508;13.284;2023-04-01T08:06:53;3.50;;;1.80;;
12603;SDS011;6367;52.508;13.284;2023-04-01T08:12:40;3.57;;;1.90;;
12603;SDS011;6367;52.508;13.284;2023-04-01T08:18:01;4.30;;;2.30;;
12603;SDS011;6367;52.508;13.284;2023-04-01T08:20:46;2.30;;;1.60;;
12603;SDS011;6367;52.508;13.284;2023-04-01T08:23:17;3.27;;;1.97;;
12603;SDS011;6367;52.508;13.284;2023-04-01T08:25:58;3.30;;;2.80;;
12603;SDS011;6367;52.508;13.284;2023-04-01T08:28:37;3.47;;;2.40;;
12603;SDS011;6367;52.508;13.284;2023-04-01T08:31:33;4.33;;;2.53;;
12603;SDS011;6367;52.508;13.284;2023-04-01T08:34:27;2.47;;;2.27;;
12603;SDS011;6367;52.508;13.284;2023-04-01T08:37:14;3.00;;;2.30;;
12603;SDS011;6367;52.508;13.284;2023-04-01T08:45:26;1.43;;;1.30;;
12603;SDS011;6367;52.508;13.284;2023-04-01T09:04:46;2.70;;;2.40;;
12603;SDS011;6367;52.508;13.284;2023-04-01T09:10:45;5.03;;;4.20;;
12603;SDS011;6367;52.508;13.284;2023-04-01T09:19:02;6.23;;;5.63;;
12603;SDS011;6367;52.508;13.284;2023-04-01T09:59:07;9.63;;;8.63;;
12603;SDS011;6367;52.508;13.284;2023-04-01T10:55:09;9.93;;;9.13;;
12603;SDS011;6367;52.508;13.284;2023-04-01T10:58:10;11.00;;;10.00;;
12603;SDS011;6367;52.508;13.284;2023-04-01T11:01:13;11.27;;;10.17;;
12603;SDS011;6367;52.508;13.284;2023-04-01T11:26:33;10.60;;;9.70;;
12603;SDS011;6367;52.508;13.284;2023-04-01T11:29:10;10.90;;;9.90;;
12603;SDS011;6367;52.508;13.284;2023-04-01T11:31:53;10.33;;;9.43;;
12603;SDS011;6367;52.508;13.284;2023-04-01T11:40:31;12.87;;;11.77;;
12603;SDS011;6367;52.508;13.284;2023-04-01T11:54:28;9.77;;;8.87;;
12603;SDS011;6367;52.508;13.284;2023-04-01T12:16:51;11.80;;;10.70;;
12603;SDS011;6367;52.508;13.284;2023-04-01T12:38:30;11.87;;;10.83;;
12603;SDS011;6367;52.508;13.284;2023-04-01T12:43:54;10.90;;;10.00;;
12603;SDS011;6367;52.508;13.284;2023-04-01T13:02:15;12.00;;;11.00;;
12603;SDS011;6367;52.508;13.284;2023-04-01T13:05:10;11.97;;;10.97;;
12603;SDS011;6367;52.508;13.284;2023-04-01T13:10:37;11.37;;;10.47;;
12603;SDS011;6367;52.508;13.284;2023-04-01T13:15:36;13.50;;;12.30;;
12603;SDS011;6367;52.508;13.284;2023-04-01T13:18:17;14.03;;;12.70;;
12603;SDS011;6367;52.508;13.284;2023-04-01T13:29:18;14.50;;;13.20;;
12603;SDS011;6367;52.508;13.284;2023-04-01T13:43:28;12.73;;;11.57;;
12603;SDS011;6367;52.508;13.284;2023-04-01T13:51:23;13.40;;;12.07;;
12603;SDS011;6367;52.508;13.284;2023-04-01T13:57:00;11.70;;;10.47;;
12603;SDS011;6367;52.508;13.284;2023-04-01T14:14:11;6.70;;;6.10;;
12603;SDS011;6367;52.508;13.284;2023-04-01T14:25:00;7.17;;;6.47;;
12603;SDS011;6367;52.508;13.284;2023-04-01T14:27:24;6.20;;;5.60;;
12603;SDS011;6367;52.508;13.284;2023-04-01T14:38:51;5.70;;;5.20;;
12603;SDS011;6367;52.508;13.284;2023-04-01T14:42:28;5.07;;;4.67;;
12603;SDS011;6367;52.508;13.284;2023-04-01T14:44:34;4.97;;;4.57;;
12603;SDS011;6367;52.508;13.284;2023-04-01T14:47:42;5.07;;;4.73;;
12603;SDS011;6367;52.508;13.284;2023-04-01T14:55:37;6.20;;;5.70;;
12603;SDS011;6367;52.508;13.284;2023-04-01T14:58:50;7.20;;;6.03;;
12603;SDS011;6367;52.508;13.284;2023-04-01T15:09:48;5.73;;;5.23;;
12603;SDS011;6367;52.508;13.284;2023-04-01T15:12:52;8.40;;;5.83;;
12603;SDS011;6367;52.508;13.284;2023-04-01T15:18:35;8.57;;;4.57;;
12603;SDS011;6367;52.508;13.284;2023-04-01T15:38:50;12.40;;;8.50;;
12603;SDS011;6367;52.508;13.284;2023-04-01T15:43:53;54.50;;;34.13;;
12603;SDS011;6367;52.508;13.284;2023-04-01T15:46:21;15.40;;;12.50;;
12603;SDS011;6367;52.508;13.284;2023-04-01T15:49:03;8.87;;;6.93;;
12603;SDS011;6367;52.508;13.284;2023-04-01T15:51:41;14.03;;;11.20;;
12603;SDS011;6367;52.508;13.284;2023-04-01T15:54:23;10.10;;;9.03;;
12603;SDS011;6367;52.508;13.284;2023-04-01T16:05:27;8.30;;;7.47;;
12603;SDS011;6367;52.508;13.284;2023-04-01T16:15:57;7.57;;;6.87;;
12603;SDS011;6367;52.508;13.284;2023-04-01T16:19:03;8.00;;;7.20;;
12603;SDS011;6367;52.508;13.284;2023-04-01T16:21:35;7.33;;;6.63;;
12603;SDS011;6367;52.508;13.284;2023-04-01T16:27:02;5.57;;;5.07;;
12603;SDS011;6367;52.508;13.284;2023-04-01T16:32:27;6.13;;;5.53;;
12603;SDS011;6367;52.508;13.284;2023-04-01T16:35:20;6.60;;;4.80;;
12603;SDS011;6367;52.508;13.284;2023-04-01T16:38:00;5.30;;;4.80;;
12603;SDS011;6367;52.508;13.284;2023-04-01T16:40:40;6.20;;;5.33;;
12603;SDS011;6367;52.508;13.284;2023-04-01T16:46:12;6.93;;;5.23;;
12603;SDS011;6367;52.508;13.284;2023-04-01T16:54:30;5.37;;;4.80;;
12603;SDS011;6367;52.508;13.284;2023-04-01T17:03:15;5.10;;;4.70;;
12603;SDS011;6367;52.508;13.284;2023-04-01T17:06:06;5.30;;;4.80;;
12603;SDS011;6367;52.508;13.284;2023-04-01T17:13:52;6.20;;;4.53;;
12603;SDS011;6367;52.508;13.284;2023-04-01T17:30:33;5.60;;;5.10;;
12603;SDS011;6367;52.508;13.284;2023-04-01T17:38:49;4.93;;;4.50;;
12603;SDS011;6367;52.508;13.284;2023-04-01T17:41:32;4.80;;;4.40;;
12603;SDS011;6367;52.508;13.284;2023-04-01T18:01:35;5.40;;;4.73;;
12603;SDS011;6367;52.508;13.284;2023-04-01T18:04:28;6.43;;;4.50;;
12603;SDS011;6367;52.508;13.284;2023-04-01T18:07:18;7.97;;;4.83;;
12603;SDS011;6367;52.508;13.284;2023-04-01T18:21:33;4.97;;;4.20;;
12603;SDS011;6367;52.508;13.284;2023-04-01T18:27:11;5.53;;;5.03;;
12603;SDS011;6367;52.508;13.284;2023-04-01T18:32:17;5.00;;;4.50;;
12603;SDS011;6367;52.508;13.284;2023-04-01T18:37:25;6.57;;;4.87;;
12603;SDS011;6367;52.508;13.284;2023-04-01T18:45:43;6.93;;;5.80;;
12603;SDS011;6367;52.508;13.284;2023-04-01T18:54:45;7.13;;;5.70;;
12603;SDS011;6367;52.508;13.284;2023-04-01T18:57:12;6.47;;;5.57;;
12603;SDS011;6367;52.508;13.284;2023-04-01T18:59:41;5.93;;;5.30;;
12603;SDS011;6367;52.508;13.284;2023-04-01T19:10:31;7.90;;;6.50;;
12603;SDS011;6367;52.508;13.284;2023-04-01T19:21:37;8.10;;;5.90;;
12603;SDS011;6367;52.508;13.284;2023-04-01T19:38:03;7.60;;;6.20;;
12603;SDS011;6367;52.508;13.284;2023-04-01T19:51:31;11.07;;;7.57;;
12603;SDS011;6367;52.508;13.284;2023-04-01T19:54:05;8.07;;;6.77;;
12603;SDS011;6367;52.508;13.284;2023-04-01T19:56:47;9.10;;;7.93;;
12603;SDS011;6367;52.508;13.284;2023-04-01T20:08:00;8.20;;;7.43;;
12603;SDS011;6367;52.508;13.284;2023-04-01T20:10:40;8.77;;;7.87;;
12603;SDS011;6367;52.508;13.284;2023-04-01T20:16:11;10.40;;;8.13;;
12603;SDS011;6367;52.508;13.284;2023-04-01T20:26:45;8.60;;;7.70;;
12603;SDS011;6367;52.508;13.284;2023-04-01T20:37:37;12.23;;;8.20;;
12603;SDS011;6367;52.508;13.284;2023-04-01T20:40:27;9.30;;;7.80;;
12603;SDS011;6367;52.508;13.284;2023-04-01T20:45:34;9.53;;;8.57;;
12603;SDS011;6367;52.508;13.284;2023-04-01T20:51:15;12.10;;;9.53;;
12603;SDS011;6367;52.508;13.284;2023-04-01T20:57:02;11.07;;;8.80;;
12603;SDS011;6367;52.508;13.284;2023-04-01T21:02:47;16.43;;;9.30;;
12603;SDS011;6367;52.508;13.284;2023-04-01T21:11:07;13.07;;;9.10;;
12603;SDS011;6367;52.508;13.284;2023-04-01T21:17:21;10.47;;;8.67;;
12603;SDS011;6367;52.508;13.284;2023-04-01T21:25:09;11.00;;;7.47;;
12603;SDS011;6367;52.508;13.284;2023-04-01T21:59:03;8.43;;;6.80;;
12603;SDS011;6367;52.508;13.284;2023-04-01T22:05:06;8.07;;;7.20;;
12603;SDS011;6367;52.508;13.284;2023-04-01T22:10:45;9.27;;;6.67;;
12603;SDS011;6367;52.508;13.284;2023-04-01T22:13:26;9.40;;;7.70;;
12603;SDS011;6367;52.508;13.284;2023-04-01T22:29:56;7.30;;;5.87;;
12603;SDS011;6367;52.508;13.284;2023-04-01T22:32:46;6.03;;;5.30;;
12603;SDS011;6367;52.508;13.284;2023-04-01T22:41:39;5.60;;;5.10;;
12603;SDS011;6367;52.508;13.284;2023-04-01T22:44:37;5.80;;;4.77;;
12603;SDS011;6367;52.508;13.284;2023-04-01T22:50:10;6.47;;;4.90;;
12603;SDS011;6367;52.508;13.284;2023-04-01T22:52:52;5.90;;;5.33;;
12603;SDS011;6367;52.508;13.284;2023-04-01T22:55:36;5.30;;;4.60;;
12603;SDS011;6367;52.508;13.284;2023-04-01T22:58:07;6.53;;;4.93;;
12603;SDS011;6367;52.508;13.284;2023-04-01T23:00:51;6.23;;;5.10;;
12603;SDS011;6367;52.508;13.284;2023-04-01T23:03:22;7.07;;;6.37;;
12603;SDS011;6367;52.508;13.284;2023-04-01T23:05:58;6.80;;;6.10;;
12603;SDS011;6367;52.508;13.284;2023-04-01T23:08:47;6.07;;;5.47;;
12603;SDS011;6367;52.508;13.284;2023-04-01T23:11:22;8.27;;;5.77;;
12603;SDS011;6367;52.508;13.284;2023-04-01T23:22:27;5.93;;;5.23;;
12603;SDS011;6367;52.508;13.284;2023-04-01T23:25:17;6.70;;;5.90;;
12603;SDS011;6367;52.508;13.284;2023-04-01T23:33:10;6.40;;;5.20;;
12603;SDS011;6367;52.508;13.284;2023-04-01T23:35:48;6.10;;;5.50;;
12603;SDS011;6367;52.508;13.284;2023-04-01T23:38:14;5.90;;;5.40;;
12603;SDS011;6367;52.508;13.284;2023-04-01T23:40:41;5.73;;;5.23;;
12603;SDS011;6367;52.508;13.284;2023-04-01T23:43:28;6.23;;;5.60;;
12603;SDS011;6367;52.508;13.284;2023-04-01T23:46:02;6.23;;;5.60;;
12603;SDS011;6367;52.508;13.284;2023-04-01T23:48:36;5.23;;;4.73;;
12603;SDS011;6367;52.508;13.284;2023-04-01T23:51:05;6.50;;;4.47;;
12603;SDS011;6367;52.508;13.284;2023-04-01T23:53:56;9.27;;;4.67;;
12603;SDS011;6367;52.508;13.284;2023-04-01T23:56:40;7.37;;;4.83;;
12603;SDS011;6367;52.508;13.284;2023-04-01T23:59:14;7.30;;;4.57;;
